Time;durP1;ratioP1;P1;durP2;ratioP2;P2;SDS_P1;SDS_P2;PMS_P1;PMS_P2;Temp;Humidity;BMP_temperature;BMP_pressure;BME280_temperature;BME280_humidity;BME280_pressure;Samples;Min_cycle;Max_cycle;Signal;HPM_P1;HPM_P2
2022/12/07 00:00:42;;;;;;;12.98;6.10;;;;;;;;;;5008730;28;98693;-68
2022/12/07 00:03:08;;;;;;;7.22;5.20;;;;;;;;;;5013495;28;99448;-68
2022/12/07 00:05:35;;;;;;;13.15;5.13;;;;;;;;;;5009440;28;98562;-68
2022/12/07 00:08:01;;;;;;;9.27;4.80;;;;;;;;;;5010094;28;99510;-68
2022/12/07 00:10:27;;;;;;;13.05;4.97;;;;;;;;;;5008506;28;100666;-68
2022/12/07 00:12:53;;;;;;;12.38;5.18;;;;;;;;;;4999576;28;98890;-68
2022/12/07 00:15:20;;;;;;;16.73;4.95;;;;;;;;;;5005422;28;99585;-68
2022/12/07 00:17:46;;;;;;;8.93;4.75;;;;;;;;;;5006827;28;99514;-68
2022/12/07 00:20:12;;;;;;;12.57;5.05;;;;;;;;;;5009380;28;98547;-68
2022/12/07 00:22:39;;;;;;;18.63;5.60;;;;;;;;;;5012001;28;99684;-69
2022/12/07 00:25:05;;;;;;;8.13;4.72;;;;;;;;;;5014458;28;100056;-68
2022/12/07 00:27:31;;;;;;;13.15;5.22;;;;;;;;;;5013420;28;99122;-68
2022/12/07 00:29:58;;;;;;;11.25;5.10;;;;;;;;;;5012644;28;100558;-69
2022/12/07 00:32:25;;;;;;;15.93;5.28;;;;;;;;;;5012504;28;100812;-69
2022/12/07 00:34:51;;;;;;;10.98;4.90;;;;;;;;;;4999263;28;99474;-68
2022/12/07 00:37:17;;;;;;;13.38;5.47;;;;;;;;;;5008842;28;99511;-68
2022/12/07 00:39:45;;;;;;;14.48;4.55;;;;;;;;;;5013100;28;97755;-68
2022/12/07 00:42:11;;;;;;;16.67;5.22;;;;;;;;;;5012413;28;98557;-68
2022/12/07 00:44:37;;;;;;;12.60;4.95;;;;;;;;;;5009628;28;99458;-68
2022/12/07 00:47:04;;;;;;;11.55;4.75;;;;;;;;;;5015365;28;99339;-68
2022/12/07 00:49:30;;;;;;;14.32;4.40;;;;;;;;;;5011441;28;100480;-69
2022/12/07 00:51:56;;;;;;;8.75;4.45;;;;;;;;;;5011034;28;98617;-70
2022/12/07 00:54:22;;;;;;;22.23;4.28;;;;;;;;;;5012810;28;100557;-69
2022/12/07 00:56:49;;;;;;;10.73;3.78;;;;;;;;;;5011359;28;100020;-68
2022/12/07 00:59:15;;;;;;;11.20;3.78;;;;;;;;;;5013063;28;98446;-70
2022/12/07 01:01:41;;;;;;;19.40;4.65;;;;;;;;;;5012470;28;99914;-69
2022/12/07 01:04:08;;;;;;;16.45;4.05;;;;;;;;;;5010722;28;98847;-68
2022/12/07 01:06:34;;;;;;;10.02;3.60;;;;;;;;;;5010858;28;98701;-68
2022/12/07 01:09:00;;;;;;;11.23;4.28;;;;;;;;;;5015237;28;99518;-67
2022/12/07 01:11:28;;;;;;;14.40;3.95;;;;;;;;;;5010601;28;99375;-68
2022/12/07 01:13:55;;;;;;;10.43;3.65;;;;;;;;;;5005204;28;100447;-68
2022/12/07 01:16:23;;;;;;;12.55;4.30;;;;;;;;;;5012240;28;100021;-67
2022/12/07 01:18:50;;;;;;;10.23;3.45;;;;;;;;;;5012283;28;98573;-68
2022/12/07 01:21:21;;;;;;;8.65;3.60;;;;;;;;;;5010315;28;99182;-69
2022/12/07 01:23:48;;;;;;;14.05;4.05;;;;;;;;;;5010757;28;99579;-68
2022/12/07 01:26:16;;;;;;;8.05;3.60;;;;;;;;;;5011696;28;98485;-68
2022/12/07 01:28:42;;;;;;;9.45;3.30;;;;;;;;;;5013388;28;100002;-68
2022/12/07 01:31:14;;;;;;;5.03;2.92;;;;;;;;;;5014095;28;99473;-68
2022/12/07 01:33:42;;;;;;;17.65;3.70;;;;;;;;;;5010446;28;100764;-67
2022/12/07 01:36:14;;;;;;;8.02;3.35;;;;;;;;;;5010660;28;100658;-68
2022/12/07 01:38:40;;;;;;;11.50;3.15;;;;;;;;;;5012259;28;98547;-68
2022/12/07 01:41:06;;;;;;;7.25;2.55;;;;;;;;;;5012165;28;99205;-69
2022/12/07 01:43:33;;;;;;;9.27;3.17;;;;;;;;;;5007537;28;101931;-68
2022/12/07 01:46:00;;;;;;;14.13;3.10;;;;;;;;;;5011911;28;98531;-68
2022/12/07 01:48:38;;;;;;;11.20;3.03;;;;;;;;;;5009458;28;99257;-68
2022/12/07 01:51:06;;;;;;;5.18;2.88;;;;;;;;;;5008344;28;102577;-68
2022/12/07 01:53:34;;;;;;;16.02;3.63;;;;;;;;;;5014673;28;97780;-68
2022/12/07 01:56:01;;;;;;;10.48;2.90;;;;;;;;;;5009409;28;99658;-68
2022/12/07 01:58:28;;;;;;;12.18;3.08;;;;;;;;;;5011374;28;98937;-69
2022/12/07 02:00:54;;;;;;;6.85;2.75;;;;;;;;;;5009770;28;99641;-68
2022/12/07 02:03:20;;;;;;;7.60;2.90;;;;;;;;;;5012593;28;99693;-68
2022/12/07 02:05:48;;;;;;;6.68;2.83;;;;;;;;;;5010496;28;98538;-68
2022/12/07 02:08:14;;;;;;;9.38;2.90;;;;;;;;;;5011829;28;99385;-68
2022/12/07 02:10:41;;;;;;;8.80;2.92;;;;;;;;;;5008754;28;99568;-68
2022/12/07 02:13:12;;;;;;;11.52;3.20;;;;;;;;;;5027570;28;98431;-69
2022/12/07 02:15:57;;;;;;;7.25;2.58;;;;;;;;;;5011811;27;99488;-68
2022/12/07 02:18:28;;;;;;;9.20;2.92;;;;;;;;;;5012382;28;97766;-68
2022/12/07 02:21:00;;;;;;;10.75;2.83;;;;;;;;;;5009884;28;98561;-68
2022/12/07 02:23:29;;;;;;;10.00;2.90;;;;;;;;;;5009933;28;99475;-68
2022/12/07 02:25:58;;;;;;;10.52;2.75;;;;;;;;;;5008494;28;99311;-68
2022/12/07 02:28:29;;;;;;;7.15;2.47;;;;;;;;;;5008237;28;102215;-67
2022/12/07 02:30:58;;;;;;;6.72;2.90;;;;;;;;;;5009379;28;99818;-69
2022/12/07 02:33:47;;;;;;;12.00;2.80;;;;;;;;;;5010522;28;98627;-68
2022/12/07 02:36:21;;;;;;;13.02;2.45;;;;;;;;;;5010427;28;100758;-68
2022/12/07 02:38:50;;;;;;;9.13;2.40;;;;;;;;;;5010382;28;98867;-67
2022/12/07 02:41:22;;;;;;;10.07;2.80;;;;;;;;;;5011654;28;99444;-68
2022/12/07 02:43:53;;;;;;;12.77;2.80;;;;;;;;;;5009249;28;100006;-68
2022/12/07 02:46:21;;;;;;;13.95;3.08;;;;;;;;;;5002745;28;98924;-69
2022/12/07 02:48:49;;;;;;;7.57;2.60;;;;;;;;;;5008791;28;100639;-68
2022/12/07 02:51:17;;;;;;;10.95;2.72;;;;;;;;;;5009915;28;100549;-68
2022/12/07 02:53:43;;;;;;;9.70;2.63;;;;;;;;;;5009255;28;98945;-68
2022/12/07 02:56:28;;;;;;;5.75;2.38;;;;;;;;;;5008806;28;98510;-68
2022/12/07 02:59:14;;;;;;;10.23;2.83;;;;;;;;;;5012020;28;99760;-68
2022/12/07 03:01:43;;;;;;;8.68;2.28;;;;;;;;;;5011054;28;99160;-68
2022/12/07 03:04:28;;;;;;;13.02;2.35;;;;;;;;;;5009829;28;100843;-68
2022/12/07 03:06:58;;;;;;;13.52;2.88;;;;;;;;;;5009731;28;98646;-68
2022/12/07 03:09:25;;;;;;;;;;;;;;;;;;5011238;28;99679;-68
2022/12/07 03:11:55;;;;;;;10.02;2.53;;;;;;;;;;5010430;28;130260;-68
2022/12/07 03:14:27;;;;;;;8.35;2.63;;;;;;;;;;5006962;28;98566;-68
2022/12/07 03:16:57;;;;;;;6.13;2.20;;;;;;;;;;5006297;28;99568;-68
2022/12/07 03:19:24;;;;;;;7.33;2.47;;;;;;;;;;5009822;28;99858;-68
2022/12/07 03:22:01;;;;;;;14.50;2.63;;;;;;;;;;5019073;28;98707;-68
2022/12/07 03:24:29;;;;;;;15.40;2.65;;;;;;;;;;5012768;27;100005;-69
2022/12/07 03:27:02;;;;;;;8.75;2.42;;;;;;;;;;5010314;28;98598;-68
2022/12/07 03:29:31;;;;;;;4.97;1.92;;;;;;;;;;5009855;28;99323;-68
2022/12/07 03:32:03;;;;;;;10.45;1.95;;;;;;;;;;5012123;27;99970;-68
2022/12/07 03:34:32;;;;;;;12.23;2.30;;;;;;;;;;5016211;28;97852;-68
2022/12/07 03:37:03;;;;;;;7.78;2.00;;;;;;;;;;5010561;28;98490;-68
2022/12/07 03:39:33;;;;;;;11.00;2.35;;;;;;;;;;5018170;28;100504;-68
2022/12/07 03:42:01;;;;;;;10.35;2.28;;;;;;;;;;5015484;28;99346;-68
2022/12/07 03:44:28;;;;;;;15.70;2.50;;;;;;;;;;5019852;27;99940;-68
2022/12/07 03:47:17;;;;;;;9.90;1.98;;;;;;;;;;5013772;28;98665;-69
2022/12/07 03:49:49;;;;;;;15.55;3.17;;;;;;;;;;5007361;27;99176;-68
2022/12/07 03:52:23;;;;;;;5.15;1.90;;;;;;;;;;4999272;28;99597;-68
2022/12/07 03:54:59;;;;;;;12.55;2.47;;;;;;;;;;5009333;28;98868;-68
2022/12/07 03:57:27;;;;;;;5.18;1.80;;;;;;;;;;5008411;28;100374;-68
2022/12/07 03:59:55;;;;;;;15.07;2.60;;;;;;;;;;5009964;28;98820;-68
2022/12/07 04:02:22;;;;;;;9.57;2.08;;;;;;;;;;5009771;28;98652;-68
2022/12/07 04:04:48;;;;;;;11.23;2.13;;;;;;;;;;5012455;28;99323;-69
2022/12/07 04:07:14;;;;;;;5.35;1.80;;;;;;;;;;5009266;28;99275;-68
2022/12/07 04:09:40;;;;;;;7.45;1.92;;;;;;;;;;5009829;28;101992;-68
2022/12/07 04:12:07;;;;;;;6.88;2.00;;;;;;;;;;5009692;28;99854;-68
2022/12/07 04:14:33;;;;;;;10.57;2.00;;;;;;;;;;5007900;28;98523;-68
2022/12/07 04:17:00;;;;;;;6.60;2.03;;;;;;;;;;5009441;28;99149;-68
2022/12/07 04:19:30;;;;;;;10.82;2.00;;;;;;;;;;5008613;28;100154;-68
2022/12/07 04:21:58;;;;;;;13.10;1.73;;;;;;;;;;5010221;28;98562;-69
2022/12/07 04:24:24;;;;;;;5.40;1.60;;;;;;;;;;5010006;28;101938;-68
2022/12/07 04:26:51;;;;;;;11.60;2.13;;;;;;;;;;5012502;28;101754;-69
2022/12/07 04:29:18;;;;;;;7.03;1.55;;;;;;;;;;5007202;28;102794;-68
2022/12/07 04:31:44;;;;;;;7.22;1.90;;;;;;;;;;5005748;28;100325;-69
2022/12/07 04:34:11;;;;;;;3.10;1.52;;;;;;;;;;5008973;28;98606;-69
2022/12/07 04:36:38;;;;;;;8.48;1.50;;;;;;;;;;5008595;28;100151;-69
2022/12/07 04:39:05;;;;;;;9.35;2.00;;;;;;;;;;5008649;28;100567;-68
2022/12/07 04:41:31;;;;;;;12.43;2.10;;;;;;;;;;5008606;28;98623;-69
2022/12/07 04:44:02;;;;;;;8.40;1.60;;;;;;;;;;5007166;28;100345;-68
2022/12/07 04:46:29;;;;;;;7.70;1.88;;;;;;;;;;5004511;28;99506;-67
2022/12/07 04:48:55;;;;;;;6.43;1.88;;;;;;;;;;5012597;28;97783;-68
2022/12/07 04:51:23;;;;;;;14.35;1.98;;;;;;;;;;5008460;28;100210;-68
2022/12/07 04:53:50;;;;;;;7.05;1.65;;;;;;;;;;5008892;28;98568;-68
2022/12/07 04:56:17;;;;;;;12.57;1.50;;;;;;;;;;5011064;28;99629;-68
2022/12/07 04:58:43;;;;;;;7.68;1.20;;;;;;;;;;5006591;28;100512;-69
2022/12/07 05:01:10;;;;;;;13.73;2.63;;;;;;;;;;5006629;28;98693;-69
2022/12/07 05:03:37;;;;;;;13.60;2.22;;;;;;;;;;5008215;28;99544;-68
2022/12/07 05:06:03;;;;;;;9.10;1.80;;;;;;;;;;5006750;28;100037;-68
2022/12/07 05:08:36;;;;;;;7.40;1.10;;;;;;;;;;5014340;28;98550;-68
2022/12/07 05:11:03;;;;;;;8.82;1.55;;;;;;;;;;5015341;28;100450;-68
2022/12/07 05:13:29;;;;;;;7.82;1.27;;;;;;;;;;5012660;28;97764;-68
2022/12/07 05:15:55;;;;;;;7.65;1.50;;;;;;;;;;5012284;28;98499;-68
2022/12/07 05:18:21;;;;;;;6.43;1.38;;;;;;;;;;5012166;28;99545;-68
2022/12/07 05:20:48;;;;;;;8.55;1.48;;;;;;;;;;5010545;28;99751;-68
2022/12/07 05:23:14;;;;;;;8.38;1.45;;;;;;;;;;5012125;28;99918;-69
2022/12/07 05:25:41;;;;;;;4.20;1.20;;;;;;;;;;5010762;28;99453;-69
2022/12/07 05:28:07;;;;;;;4.45;1.17;;;;;;;;;;5010861;28;100252;-69
2022/12/07 05:30:33;;;;;;;9.75;1.42;;;;;;;;;;5011812;28;98560;-68
2022/12/07 05:32:59;;;;;;;4.68;1.45;;;;;;;;;;5013983;28;100528;-68
2022/12/07 05:35:26;;;;;;;7.13;1.15;;;;;;;;;;5008289;28;100124;-68
2022/12/07 05:37:52;;;;;;;12.07;2.47;;;;;;;;;;5011241;28;99035;-69
2022/12/07 05:40:18;;;;;;;8.95;1.92;;;;;;;;;;5010871;28;100302;-68
2022/12/07 05:42:45;;;;;;;9.27;2.10;;;;;;;;;;5011622;28;99156;-69
2022/12/07 05:45:11;;;;;;;11.40;2.05;;;;;;;;;;5003832;28;100710;-67
2022/12/07 05:47:37;;;;;;;3.13;1.48;;;;;;;;;;5025162;27;98897;-68
2022/12/07 05:50:04;;;;;;;8.85;1.70;;;;;;;;;;5010445;28;100384;-68
2022/12/07 05:52:31;;;;;;;14.63;1.45;;;;;;;;;;5011236;28;99939;-68
2022/12/07 05:54:57;;;;;;;8.40;1.30;;;;;;;;;;5017749;28;98598;-68
2022/12/07 05:57:23;;;;;;;7.82;1.58;;;;;;;;;;5010320;28;100515;-68
2022/12/07 05:59:50;;;;;;;6.05;1.30;;;;;;;;;;5009686;28;99776;-67
2022/12/07 06:02:17;;;;;;;10.05;1.83;;;;;;;;;;5012117;28;99815;-68
2022/12/07 06:04:45;;;;;;;8.75;2.03;;;;;;;;;;5011053;28;100409;-68
2022/12/07 06:07:12;;;;;;;7.40;1.85;;;;;;;;;;5010304;28;99856;-68
2022/12/07 06:09:39;;;;;;;8.23;1.65;;;;;;;;;;5010833;28;99575;-68
2022/12/07 06:14:51;;;;;;;14.73;6.22;;;;;;;;;;5013461;28;99422;-68
2022/12/07 06:17:17;;;;;;;10.30;2.22;;;;;;;;;;5011131;28;99951;-68
2022/12/07 06:19:43;;;;;;;7.18;1.63;;;;;;;;;;5010171;28;98950;-69
2022/12/07 06:22:11;;;;;;;11.85;2.00;;;;;;;;;;4997246;28;99120;-68
2022/12/07 06:24:38;;;;;;;6.38;2.03;;;;;;;;;;4995909;28;99718;-68
2022/12/07 06:27:04;;;;;;;20.02;3.63;;;;;;;;;;5010263;28;98517;-68
2022/12/07 06:29:30;;;;;;;18.65;2.28;;;;;;;;;;5010884;28;98753;-68
2022/12/07 06:31:57;;;;;;;7.90;2.35;;;;;;;;;;5009345;28;99552;-68
2022/12/07 06:34:24;;;;;;;9.27;2.17;;;;;;;;;;5008549;28;100099;-68
2022/12/07 06:36:54;;;;;;;26.83;2.63;;;;;;;;;;5013739;28;99827;-69
2022/12/07 06:39:21;;;;;;;;;;;;;;;;;;5010354;28;98651;-67
2022/12/07 06:41:47;;;;;;;10.40;2.88;;;;;;;;;;5012378;28;129454;-68
2022/12/07 06:44:13;;;;;;;7.15;2.30;;;;;;;;;;5022895;28;99606;-70
2022/12/07 06:46:40;;;;;;;11.18;2.03;;;;;;;;;;5025666;27;98581;-68
2022/12/07 06:49:06;;;;;;;9.82;2.33;;;;;;;;;;5002757;28;100184;-68
2022/12/07 06:51:35;;;;;;;10.80;2.33;;;;;;;;;;5010906;28;99099;-69
2022/12/07 06:54:01;;;;;;;13.10;2.47;;;;;;;;;;5000685;28;99121;-68
2022/12/07 06:56:28;;;;;;;12.35;2.58;;;;;;;;;;4999718;28;99181;-68
2022/12/07 06:58:55;;;;;;;12.20;2.20;;;;;;;;;;5001384;28;100485;-68
2022/12/07 07:01:21;;;;;;;11.15;2.25;;;;;;;;;;4994547;28;99918;-69
2022/12/07 07:03:47;;;;;;;12.38;1.90;;;;;;;;;;5011467;28;100100;-68
2022/12/07 07:06:14;;;;;;;15.10;2.13;;;;;;;;;;5031167;28;98532;-68
2022/12/07 07:08:40;;;;;;;6.82;1.83;;;;;;;;;;5016613;27;99420;-68
2022/12/07 07:11:07;;;;;;;12.95;2.20;;;;;;;;;;5014597;28;99807;-68
2022/12/07 07:13:33;;;;;;;11.63;2.38;;;;;;;;;;5011023;28;98503;-68
2022/12/07 07:16:00;;;;;;;8.95;2.55;;;;;;;;;;5011586;28;99234;-69
2022/12/07 07:18:26;;;;;;;11.45;2.35;;;;;;;;;;5010737;28;99325;-69
2022/12/07 07:20:53;;;;;;;15.63;2.95;;;;;;;;;;5015194;28;98520;-69
2022/12/07 07:23:20;;;;;;;10.68;3.42;;;;;;;;;;5021817;27;100241;-69
2022/12/07 07:25:46;;;;;;;17.20;2.53;;;;;;;;;;5025583;27;98777;-68
2022/12/07 07:28:12;;;;;;;11.60;2.53;;;;;;;;;;5031063;27;99200;-69
2022/12/07 07:30:38;;;;;;;13.77;3.10;;;;;;;;;;5029182;27;99567;-68
2022/12/07 07:33:05;;;;;;;10.20;3.38;;;;;;;;;;5007386;27;98697;-68
2022/12/07 07:35:33;;;;;;;15.13;3.78;;;;;;;;;;5009488;28;99589;-67
2022/12/07 07:38:00;;;;;;;7.38;2.90;;;;;;;;;;5010078;28;100543;-68
2022/12/07 07:40:28;;;;;;;7.45;2.90;;;;;;;;;;5011311;28;97826;-68
2022/12/07 07:42:55;;;;;;;17.27;4.05;;;;;;;;;;5013235;28;98710;-68
2022/12/07 07:45:22;;;;;;;15.40;3.70;;;;;;;;;;5008198;27;99433;-68
2022/12/07 07:47:48;;;;;;;14.07;3.50;;;;;;;;;;5016867;28;99296;-69
2022/12/07 07:50:15;;;;;;;12.15;3.65;;;;;;;;;;5017514;27;99604;-68
2022/12/07 07:52:42;;;;;;;19.63;4.35;;;;;;;;;;5030382;27;98510;-68
2022/12/07 07:55:08;;;;;;;17.25;5.47;;;;;;;;;;5020774;27;99215;-68
2022/12/07 07:57:35;;;;;;;7.97;4.32;;;;;;;;;;5016442;28;99683;-68
2022/12/07 08:00:05;;;;;;;14.10;4.85;;;;;;;;;;5016436;27;98568;-67
2022/12/07 08:02:32;;;;;;;19.43;5.57;;;;;;;;;;5016035;28;100247;-67
2022/12/07 08:04:58;;;;;;;18.63;5.60;;;;;;;;;;5033699;27;98936;-68
2022/12/07 08:07:24;;;;;;;19.20;5.13;;;;;;;;;;5029924;27;98512;-67
2022/12/07 08:09:51;;;;;;;13.70;4.75;;;;;;;;;;5013617;27;100753;-68
2022/12/07 08:12:17;;;;;;;20.25;5.35;;;;;;;;;;5005566;28;100974;-68
2022/12/07 08:14:43;;;;;;;11.77;3.05;;;;;;;;;;5008810;28;99931;-68
2022/12/07 08:17:10;;;;;;;13.57;3.90;;;;;;;;;;5002308;28;100194;-67
2022/12/07 08:19:36;;;;;;;16.35;4.00;;;;;;;;;;5004183;28;98718;-69
2022/12/07 08:22:02;;;;;;;16.60;4.60;;;;;;;;;;5004660;27;99283;-68
2022/12/07 08:24:28;;;;;;;15.35;4.10;;;;;;;;;;5003147;28;100548;-68
2022/12/07 08:26:55;;;;;;;11.00;3.55;;;;;;;;;;4990111;28;99280;-68
2022/12/07 08:29:21;;;;;;;7.63;3.40;;;;;;;;;;4990024;28;99101;-69
2022/12/07 08:31:47;;;;;;;18.35;4.13;;;;;;;;;;5002837;28;100320;-69
2022/12/07 08:34:14;;;;;;;11.43;2.25;;;;;;;;;;5010015;28;99524;-69
2022/12/07 08:36:40;;;;;;;14.43;2.65;;;;;;;;;;5004944;28;100342;-68
2022/12/07 08:39:06;;;;;;;10.15;2.00;;;;;;;;;;4995576;28;98604;-68
2022/12/07 08:41:53;;;;;;;8.73;1.85;;;;;;;;;;4991093;28;98854;-69
2022/12/07 08:44:19;;;;;;;5.43;1.40;;;;;;;;;;5012362;28;100053;-68
2022/12/07 08:46:48;;;;;;;5.55;1.42;;;;;;;;;;5031346;28;99987;-70
2022/12/07 08:49:24;;;;;;;10.60;1.92;;;;;;;;;;5029595;27;99458;-70
2022/12/07 08:51:50;;;;;;;8.32;1.65;;;;;;;;;;5028636;27;98563;-69
2022/12/07 08:54:17;;;;;;;5.95;1.40;;;;;;;;;;5008771;28;100349;-68
2022/12/07 08:56:44;;;;;;;8.75;2.40;;;;;;;;;;4996017;28;100612;-68
2022/12/07 08:59:12;;;;;;;8.90;2.28;;;;;;;;;;5011826;28;98761;-68
2022/12/07 09:01:38;;;;;;;4.47;1.48;;;;;;;;;;5003643;28;101113;-68
2022/12/07 09:04:05;;;;;;;10.98;2.05;;;;;;;;;;5012423;28;99478;-69
2022/12/07 09:06:31;;;;;;;7.90;1.88;;;;;;;;;;5012424;28;99761;-68
2022/12/07 09:08:58;;;;;;;6.20;1.65;;;;;;;;;;5014534;28;99090;-67
2022/12/07 09:11:25;;;;;;;6.50;2.17;;;;;;;;;;5013364;28;98823;-68
2022/12/07 09:13:54;;;;;;;9.30;2.03;;;;;;;;;;5003346;28;99556;-68
2022/12/07 09:16:20;;;;;;;8.48;1.70;;;;;;;;;;5012523;28;99503;-68
2022/12/07 09:18:47;;;;;;;12.32;2.10;;;;;;;;;;5010062;28;98575;-67
2022/12/07 09:21:13;;;;;;;8.63;2.00;;;;;;;;;;5015761;28;98945;-70
2022/12/07 09:23:41;;;;;;;14.85;2.85;;;;;;;;;;5003560;28;100097;-67
2022/12/07 09:26:07;;;;;;;8.85;2.00;;;;;;;;;;5003291;28;99385;-68
2022/12/07 09:28:36;;;;;;;11.20;1.92;;;;;;;;;;5009680;28;100005;-67
2022/12/07 09:31:02;;;;;;;10.68;1.70;;;;;;;;;;5014607;28;99817;-70
2022/12/07 09:33:53;;;;;;;11.10;2.03;;;;;;;;;;5030554;27;99930;-67
2022/12/07 09:36:19;;;;;;;9.20;2.05;;;;;;;;;;5030137;27;100048;-67
2022/12/07 09:38:45;;;;;;;9.80;1.92;;;;;;;;;;5014825;27;98568;-68
2022/12/07 09:41:12;;;;;;;9.68;1.83;;;;;;;;;;4992541;28;101887;-67
2022/12/07 09:43:39;;;;;;;8.18;1.70;;;;;;;;;;5023723;27;99285;-67
2022/12/07 09:46:05;;;;;;;5.47;1.88;;;;;;;;;;5018319;27;99025;-67
2022/12/07 09:48:33;;;;;;;10.25;1.63;;;;;;;;;;5015665;27;99251;-67
2022/12/07 09:51:00;;;;;;;6.15;2.25;;;;;;;;;;5011502;28;102234;-68
2022/12/07 09:53:28;;;;;;;8.23;2.60;;;;;;;;;;5016079;28;98599;-67
2022/12/07 09:55:54;;;;;;;7.05;2.22;;;;;;;;;;5009294;28;100135;-67
2022/12/07 09:58:23;;;;;;;14.48;1.98;;;;;;;;;;5012809;28;99184;-68
2022/12/07 10:00:53;;;;;;;5.20;1.67;;;;;;;;;;5011006;27;99993;-67
2022/12/07 10:03:20;;;;;;;7.45;1.77;;;;;;;;;;5001004;28;99536;-68
2022/12/07 10:05:48;;;;;;;18.77;1.88;;;;;;;;;;5000270;28;98690;-69
2022/12/07 10:08:17;;;;;;;7.40;1.67;;;;;;;;;;5003284;27;99295;-68
2022/12/07 10:10:45;;;;;;;13.57;2.22;;;;;;;;;;5011307;28;99994;-68
2022/12/07 10:13:12;;;;;;;4.68;1.40;;;;;;;;;;5010549;28;99789;-68
2022/12/07 10:15:50;;;;;;;12.55;1.60;;;;;;;;;;5008605;28;99276;-67
2022/12/07 10:18:33;;;;;;;7.57;1.70;;;;;;;;;;4991884;28;98465;-70
2022/12/07 10:21:03;;;;;;;7.82;2.53;;;;;;;;;;4992012;28;100258;-67
2022/12/07 10:23:29;;;;;;;9.70;2.22;;;;;;;;;;4991670;28;100667;-68
2022/12/07 10:25:55;;;;;;;5.20;1.70;;;;;;;;;;4991743;28;98548;-68
2022/12/07 10:28:22;;;;;;;15.73;3.05;;;;;;;;;;4992362;28;99830;-68
2022/12/07 10:31:11;;;;;;;9.70;2.92;;;;;;;;;;4991426;28;99651;-68
2022/12/07 10:33:48;;;;;;;9.75;2.60;;;;;;;;;;4989069;28;97990;-67
2022/12/07 10:36:17;;;;;;;6.90;2.17;;;;;;;;;;4994882;28;99387;-68
2022/12/07 10:38:45;;;;;;;6.93;2.30;;;;;;;;;;4991491;28;98537;-68
2022/12/07 10:41:11;;;;;;;12.35;2.63;;;;;;;;;;4989664;28;99416;-68
2022/12/07 10:43:46;;;;;;;16.15;3.53;;;;;;;;;;4991069;28;99513;-68
2022/12/07 10:46:31;;;;;;;11.90;2.67;;;;;;;;;;5002213;28;99025;-67
2022/12/07 10:49:12;;;;;;;6.93;2.00;;;;;;;;;;5011594;28;99191;-68
2022/12/07 10:51:45;;;;;;;9.45;1.95;;;;;;;;;;4990846;28;100070;-68
2022/12/07 10:54:16;;;;;;;7.03;2.30;;;;;;;;;;4991174;28;98816;-68
2022/12/07 10:56:56;;;;;;;6.68;2.20;;;;;;;;;;4990671;28;100569;-67
2022/12/07 10:59:46;;;;;;;6.45;1.95;;;;;;;;;;4994735;28;98980;-68
2022/12/07 11:02:12;;;;;;;4.65;1.65;;;;;;;;;;4991457;28;98620;-68
2022/12/07 11:05:06;;;;;;;5.88;1.73;;;;;;;;;;4990814;28;99641;-68
2022/12/07 11:07:47;;;;;;;9.02;1.80;;;;;;;;;;4990686;28;99202;-69
2022/12/07 11:10:26;;;;;;;8.65;2.00;;;;;;;;;;4990905;28;100220;-68
2022/12/07 11:13:04;;;;;;;6.03;1.42;;;;;;;;;;4990918;28;99619;-67
2022/12/07 11:15:33;;;;;;;6.68;1.80;;;;;;;;;;4995544;28;98832;-68
2022/12/07 11:18:10;;;;;;;5.75;1.60;;;;;;;;;;5009589;28;98614;-68
2022/12/07 11:21:04;;;;;;;10.00;1.27;;;;;;;;;;5010544;28;100713;-67
2022/12/07 11:23:30;;;;;;;11.10;1.70;;;;;;;;;;5014432;28;98479;-69
2022/12/07 11:26:17;;;;;;;8.65;1.27;;;;;;;;;;5011186;28;99765;-67
2022/12/07 11:28:43;;;;;;;10.80;2.10;;;;;;;;;;5009895;28;98779;-68
2022/12/07 11:31:18;;;;;;;7.13;1.65;;;;;;;;;;5010575;28;99376;-63
2022/12/07 11:33:58;;;;;;;7.95;1.50;;;;;;;;;;5010081;28;101224;-63
2022/12/07 11:36:41;;;;;;;7.85;1.80;;;;;;;;;;5011081;28;98494;-63
2022/12/07 11:39:15;;;;;;;7.25;1.25;;;;;;;;;;5003030;28;100159;-63
2022/12/07 11:41:42;;;;;;;11.10;2.00;;;;;;;;;;4990280;28;99437;-63
2022/12/07 11:44:29;;;;;;;7.15;1.67;;;;;;;;;;4990257;28;98516;-63
2022/12/07 11:46:58;;;;;;;9.10;2.33;;;;;;;;;;5001604;28;99891;-63
2022/12/07 11:49:37;;;;;;;9.37;1.30;;;;;;;;;;5010757;28;99003;-63
2022/12/07 11:52:05;;;;;;;11.02;2.40;;;;;;;;;;5010960;28;99591;-63
2022/12/07 11:54:35;;;;;;;11.45;2.22;;;;;;;;;;5010432;28;101600;-64
2022/12/07 11:57:03;;;;;;;5.70;2.00;;;;;;;;;;5010840;28;98640;-64
2022/12/07 11:59:32;;;;;;;7.20;1.50;;;;;;;;;;5010063;28;100580;-63
2022/12/07 12:02:14;;;;;;;8.10;1.67;;;;;;;;;;5010215;28;99867;-64
2022/12/07 12:04:52;;;;;;;4.07;1.88;;;;;;;;;;5010289;28;98570;-64
2022/12/07 12:07:21;;;;;;;7.32;2.83;;;;;;;;;;5010332;28;100220;-64
2022/12/07 12:10:20;;;;;;;3.75;2.55;;;;;;;;;;5013265;28;99019;-63
2022/12/07 12:12:46;;;;;;;12.43;2.65;;;;;;;;;;5009796;28;99227;-63
2022/12/07 12:15:51;;;;;;;4.88;1.38;;;;;;;;;;5010154;28;99192;-64
2022/12/07 12:18:17;;;;;;;4.50;1.40;;;;;;;;;;5010587;28;97779;-64
2022/12/07 12:20:50;;;;;;;5.97;1.52;;;;;;;;;;5010149;28;99444;-64
2022/12/07 12:23:16;;;;;;;5.78;1.60;;;;;;;;;;5009353;28;99835;-64
2022/12/07 12:25:45;;;;;;;4.60;1.67;;;;;;;;;;5009603;28;99242;-64
2022/12/07 12:28:37;;;;;;;11.88;2.17;;;;;;;;;;5010109;28;100123;-64
2022/12/07 12:31:06;;;;;;;5.88;1.63;;;;;;;;;;4991993;28;100825;-63
2022/12/07 12:33:32;;;;;;;5.05;1.30;;;;;;;;;;5011541;28;98900;-64
2022/12/07 12:36:15;;;;;;;9.90;1.10;;;;;;;;;;5009722;28;100577;-64
2022/12/07 12:38:48;;;;;;;9.27;2.45;;;;;;;;;;5009783;28;98663;-63
2022/12/07 12:41:32;;;;;;;8.02;1.80;;;;;;;;;;5009744;28;99164;-63
2022/12/07 12:43:59;;;;;;;6.25;2.10;;;;;;;;;;5009700;28;100102;-63
2022/12/07 12:46:34;;;;;;;6.78;1.83;;;;;;;;;;5009903;28;98581;-62
2022/12/07 12:49:16;;;;;;;6.18;1.55;;;;;;;;;;5009744;28;99297;-63
2022/12/07 12:51:43;;;;;;;6.82;2.15;;;;;;;;;;5009047;28;100625;-63
2022/12/07 12:54:28;;;;;;;4.60;1.70;;;;;;;;;;5013424;28;98495;-62
2022/12/07 12:57:07;;;;;;;7.18;1.88;;;;;;;;;;5009365;28;99508;-63
2022/12/07 12:59:36;;;;;;;5.50;1.98;;;;;;;;;;5009935;28;98673;-63
2022/12/07 13:02:08;;;;;;;5.60;1.95;;;;;;;;;;5009736;28;100348;-63
2022/12/07 13:04:50;;;;;;;5.45;1.10;;;;;;;;;;5009374;28;99664;-63
2022/12/07 13:07:35;;;;;;;9.88;1.85;;;;;;;;;;5009775;28;98728;-63
2022/12/07 13:10:01;;;;;;;7.95;1.58;;;;;;;;;;5010158;28;100346;-63
2022/12/07 13:12:28;;;;;;;7.70;1.77;;;;;;;;;;5007877;28;99480;-63
2022/12/07 13:14:56;;;;;;;1.20;0.63;;;;;;;;;;5009587;28;98490;-63
2022/12/07 13:17:31;;;;;;;1.25;0.63;;;;;;;;;;4991721;28;99477;-63
2022/12/07 13:20:02;;;;;;;2.47;0.93;;;;;;;;;;4989375;28;98559;-63
2022/12/07 13:22:31;;;;;;;2.53;0.70;;;;;;;;;;4989403;28;99299;-64
2022/12/07 13:24:59;;;;;;;5.85;0.82;;;;;;;;;;4989059;28;99998;-63
2022/12/07 13:27:26;;;;;;;4.05;0.80;;;;;;;;;;4987974;28;98628;-63
2022/12/07 13:29:56;;;;;;;5.32;0.80;;;;;;;;;;4991854;28;99437;-63
2022/12/07 13:32:26;;;;;;;3.97;0.68;;;;;;;;;;4992586;28;100429;-63
2022/12/07 13:34:52;;;;;;;;;;;;;;;;;;4993552;28;97715;-63
2022/12/07 13:37:29;;;;;;;4.78;1.05;;;;;;;;;;4993577;28;127113;-63
2022/12/07 13:40:18;;;;;;;3.22;0.65;;;;;;;;;;4998335;28;99527;-63
2022/12/07 13:42:44;;;;;;;5.72;0.93;;;;;;;;;;4992339;28;100196;-63
2022/12/07 13:45:48;;;;;;;4.88;0.82;;;;;;;;;;4993319;28;99498;-63
2022/12/07 13:48:20;;;;;;;11.60;0.75;;;;;;;;;;5011035;28;98555;-63
2022/12/07 13:50:52;;;;;;;6.00;1.15;;;;;;;;;;5011973;28;99272;-63
2022/12/07 13:53:18;;;;;;;5.07;1.33;;;;;;;;;;5012320;28;100854;-63
2022/12/07 13:55:46;;;;;;;4.32;1.55;;;;;;;;;;5012371;28;98515;-63
2022/12/07 13:58:19;;;;;;;12.43;1.98;;;;;;;;;;5012417;28;99355;-63
2022/12/07 14:00:46;;;;;;;14.48;1.25;;;;;;;;;;5012402;28;98771;-63
2022/12/07 14:03:12;;;;;;;4.55;1.48;;;;;;;;;;5015695;28;98584;-62
2022/12/07 14:05:43;;;;;;;6.88;1.40;;;;;;;;;;5010568;28;99457;-63
2022/12/07 14:08:09;;;;;;;6.10;1.27;;;;;;;;;;5011675;28;99268;-63
2022/12/07 14:10:38;;;;;;;7.13;1.45;;;;;;;;;;5012192;28;99850;-63
2022/12/07 14:13:24;;;;;;;5.43;1.65;;;;;;;;;;5012140;28;102277;-63
2022/12/07 14:15:51;;;;;;;6.32;1.60;;;;;;;;;;5011672;28;98555;-63
2022/12/07 14:18:25;;;;;;;8.43;1.63;;;;;;;;;;5012012;28;99281;-63
2022/12/07 14:21:01;;;;;;;7.97;1.50;;;;;;;;;;5011520;28;100581;-63
2022/12/07 14:23:28;;;;;;;9.15;2.00;;;;;;;;;;5012134;28;98840;-63
2022/12/07 14:26:04;;;;;;;8.70;1.30;;;;;;;;;;5014995;28;99360;-63
2022/12/07 14:28:31;;;;;;;5.95;1.38;;;;;;;;;;5011791;28;98514;-63
2022/12/07 14:30:58;;;;;;;7.10;2.53;;;;;;;;;;5011841;28;98707;-63
2022/12/07 14:33:25;;;;;;;8.48;1.90;;;;;;;;;;5010869;28;100596;-63
2022/12/07 14:35:57;;;;;;;12.20;2.60;;;;;;;;;;5011787;28;98503;-63
2022/12/07 14:38:25;;;;;;;7.10;2.38;;;;;;;;;;5011731;28;99362;-64
2022/12/07 14:41:50;;;;;;;6.93;2.85;;;;;;;;;;5010614;28;99886;-63
2022/12/07 14:43:41;;;;;;;8.00;1.70;;;;;;;;;;5011742;28;98546;-68
2022/12/07 14:46:27;;;;;;;9.55;2.55;;;;;;;;;;5013837;28;102334;-68
2022/12/07 14:48:53;;;;;;;10.60;3.08;;;;;;;;;;5010224;28;98633;-68
2022/12/07 14:51:40;;;;;;;9.98;2.83;;;;;;;;;;4992119;28;98935;-68
2022/12/07 14:54:29;;;;;;;6.18;2.17;;;;;;;;;;4991189;28;99169;-68